| time (UTC) | temp F | wind direction | speed knots | gust knots | rain 1hr in | rain 24hr in | rain mn in | humidity % | barometer mb |
| 20260508072702 | 67 | 113 | 0.9 | 2.6 | 0.00 | 0.00 | 0.00 | 52 | 1017.4 |
| 20260508071802 | 66 | 133 | 0.9 | 3.5 | 0.00 | 0.00 | 0.00 | 54 | 1017.4 |
| 20260508070901 | 66 | 158 | 0.9 | 1.7 | 0.00 | 0.00 | 0.00 | 54 | 1017.2 |
| 20260508065100 | 66 | 113 | 0.9 | 1.7 | 0.00 | 0.00 | 0.00 | 56 | 1017.2 |
| 20260508064159 | 65 | 113 | 1.7 | 2.6 | 0.00 | 0.00 | 0.00 | 56 | 1017.2 |
| 20260508063259 | 65 | 135 | 0.9 | 2.6 | 0.00 | 0.00 | 0.00 | 57 | 1017.3 |
| 20260508062400 | 65 | 135 | 0.9 | 2.6 | 0.00 | 0.00 | 0.00 | 58 | 1017.3 |
| 20260508061458 | 65 | 135 | 1.7 | 3.5 | 0.00 | 0.00 | 0.00 | 61 | 1017.3 |
| 20260508060557 | 63 | 158 | 0.9 | 1.7 | 0.00 | 0.00 | 0.00 | 65 | 1017.4 |
| 20260508055718 | 61 | 0.0 | 1.7 | 0.00 | 0.00 | 0.00 | 69 | 1017.4 | |
| 20260508054817 | 59 | 135 | 0.9 | 2.6 | 0.00 | 0.00 | 0.00 | 71 | 1017.5 |
| 20260508053915 | 57 | 135 | 0.0 | 2.6 | 0.00 | 0.00 | 0.00 | 74 | 1017.4 |
| 20260508052054 | 56 | 135 | 0.9 | 1.7 | 0.00 | 0.00 | 0.00 | 74 | 1017.4 |
| 20260508051153 | 56 | 113 | 0.9 | 1.7 | 0.00 | 0.00 | 0.00 | 74 | 1017.3 |
| 20260508050252 | 56 | 0.0 | 1.7 | 0.00 | 0.00 | 0.00 | 74 | 1017.3 | |
| 20260508045352 | 56 | 0.0 | 1.7 | 0.00 | 0.00 | 0.00 | 74 | 1017.3 | |
| 20260508044453 | 56 | 158 | 0.9 | 1.7 | 0.00 | 0.00 | 0.00 | 75 | 1017.2 |
| 20260508043550 | 56 | 0.0 | 1.7 | 0.00 | 0.00 | 0.00 | 77 | 1017.1 | |
| 20260508042650 | 55 | 113 | 0.9 | 1.7 | 0.00 | 0.00 | 0.00 | 79 | 1017.3 |
| 20260508041749 | 54 | 113 | 0.9 | 1.7 | 0.00 | 0.00 | 0.00 | 80 | 1017.2 |
| 20260508040848 | 53 | 0.0 | 2.6 | 0.00 | 0.00 | 0.00 | 80 | 1017.1 | |
| 20260508035127 | 53 | 113 | 1.7 | 3.5 | 0.00 | 0.00 | 0.00 | 80 | 1017.0 |
| 20260508034207 | 53 | 1.7 | 3.5 | 0.00 | 0.00 | 0.00 | 81 | 1017.1 | |
| 20260508033246 | 52 | 135 | 1.7 | 3.5 | 0.00 | 0.00 | 0.00 | 81 | 1017.0 |
| 20260508032345 | 52 | 135 | 0.9 | 3.5 | 0.00 | 0.00 | 0.00 | 81 | 1017.0 |
| 20260508031444 | 52 | 158 | 0.0 | 1.7 | 0.00 | 0.00 | 0.00 | 81 | 1017.0 |
| 20260508030544 | 52 | 135 | 0.9 | 1.7 | 0.00 | 0.00 | 0.00 | 81 | 1017.0 |
| 20260508025703 | 52 | 135 | 0.9 | 3.5 | 0.00 | 0.00 | 0.00 | 81 | 1017.0 |
| 20260508024743 | 52 | 0.0 | 1.7 | 0.00 | 0.00 | 0.00 | 81 | 1016.9 | |
| 20260508023842 | 52 | 150 | 0.9 | 2.6 | 0.00 | 0.00 | 0.00 | 81 | 1016.9 |
| 20260508022041 | 52 | 113 | 1.7 | 3.5 | 0.00 | 0.00 | 0.00 | 81 | 1016.9 |
| 20260508021140 | 52 | 0.9 | 1.7 | 0.00 | 0.00 | 0.00 | 81 | 1016.9 | |
| 20260508020239 | 52 | 0.0 | 1.7 | 0.00 | 0.00 | 0.00 | 81 | 1017.0 | |
| 20260508015420 | 51 | 0.0 | 0.9 | 0.00 | 0.00 | 0.00 | 81 | 1017.0 | |
| 20260508014438 | 51 | 0.9 | 1.7 | 0.00 | 0.00 | 0.00 | 81 | 1017.0 | |
| 20260508013537 | 51 | 113 | 0.9 | 3.5 | 0.00 | 0.00 | 0.00 | 81 | 1017.0 |
| 20260508012637 | 51 | 113 | 0.9 | 1.7 | 0.00 | 0.00 | 0.00 | 81 | 1017.1 |
| 20260508011738 | 51 | 135 | 1.7 | 2.6 | 0.00 | 0.00 | 0.00 | 81 | 1017.0 |
| 20260508010835 | 51 | 0.0 | 1.7 | 0.00 | 0.00 | 0.00 | 80 | 1017.0 | |
| 20260508005034 | 51 | 0.0 | 1.7 | 0.00 | 0.00 | 0.00 | 80 | 1017.1 | |
| 20260508004134 | 51 | 0.0 | 1.7 | 0.00 | 0.00 | 0.00 | 80 | 1017.2 | |
| 20260508003235 | 51 | 113 | 0.9 | 2.6 | 0.00 | 0.00 | 0.00 | 80 | 1017.3 |
| 20260508002332 | 51 | 135 | 0.0 | 1.7 | 0.00 | 0.00 | 0.00 | 79 | 1017.3 |
| 20260508001432 | 51 | 158 | 0.9 | 1.7 | 0.00 | 0.00 | 0.00 | 79 | 1017.4 |
| 20260508000531 | 51 | 0.0 | 1.7 | 0.00 | 0.00 | 0.00 | 78 | 1017.3 | |
| 20260507235631 | 51 | 135 | 0.9 | 2.6 | 0.00 | 0.00 | 0.00 | 78 | 1017.3 |
| 20260507234749 | 52 | 135 | 0.9 | 2.6 | 0.00 | 0.00 | 0.00 | 77 | 1017.3 |
| 20260507233829 | 52 | 135 | 0.0 | 2.6 | 0.00 | 0.00 | 0.00 | 77 | 1017.3 |
| 20260507232029 | 52 | 0.0 | 2.6 | 0.00 | 0.00 | 0.00 | 76 | 1017.5 | |
| 20260507231127 | 52 | 135 | 1.7 | 3.5 | 0.00 | 0.00 | 0.00 | 76 | 1017.5 |
| 20260507230226 | 53 | 0.0 | 0.9 | 0.00 | 0.00 | 0.00 | 75 | 1017.5 | |
| 20260507225326 | 53 | 0.0 | 2.6 | 0.00 | 0.00 | 0.00 | 75 | 1017.6 | |
| 20260507224425 | 53 | 158 | 0.9 | 2.6 | 0.00 | 0.00 | 0.00 | 74 | 1017.8 |
| 20260507223524 | 53 | 0.9 | 1.7 | 0.00 | 0.00 | 0.00 | 74 | 1017.7 | |
| 20260507222624 | 53 | 0.0 | 1.7 | 0.00 | 0.00 | 0.00 | 74 | 1017.7 | |
| 20260507221724 | 53 | 135 | 0.9 | 1.7 | 0.00 | 0.00 | 0.00 | 73 | 1017.7 |
| 20260507220822 | 54 | 0.0 | 1.7 | 0.00 | 0.00 | 0.00 | 72 | 1017.8 | |
| 20260507215021 | 54 | 0.0 | 1.7 | 0.00 | 0.00 | 0.00 | 72 | 1017.8 | |
| 20260507214141 | 54 | 135 | 0.9 | 2.6 | 0.00 | 0.00 | 0.00 | 72 | 1017.7 |
| 20260507213220 | 55 | 158 | 0.0 | 1.7 | 0.00 | 0.00 | 0.00 | 72 | 1017.8 |
| 20260507212319 | 55 | 0.0 | 1.7 | 0.00 | 0.00 | 0.00 | 71 | 1017.7 | |
| 20260507211418 | 55 | 0.0 | 0.9 | 0.00 | 0.00 | 0.00 | 71 | 1017.7 | |
| 20260507210518 | 55 | 0.0 | 1.7 | 0.00 | 0.00 | 0.00 | 71 | 1017.7 | |
| 20260507205617 | 56 | 0.0 | 0.9 | 0.00 | 0.00 | 0.00 | 70 | 1017.7 | |
| 20260507204717 | 56 | 0.9 | 1.7 | 0.00 | 0.00 | 0.00 | 70 | 1017.7 | |
| 20260507203816 | 56 | 158 | 0.9 | 2.6 | 0.00 | 0.00 | 0.00 | 69 | 1017.7 |
| 20260507202015 | 57 | 0.0 | 0.9 | 0.00 | 0.00 | 0.00 | 68 | 1017.6 | |
| 20260507201216 | 57 | 135 | 0.9 | 3.5 | 0.00 | 0.00 | 0.00 | 68 | 1017.6 |
| 20260507200213 | 58 | 0.9 | 1.7 | 0.00 | 0.00 | 0.00 | 67 | 1017.7 | |
| 20260507195313 | 58 | 158 | 0.9 | 1.7 | 0.00 | 0.00 | 0.00 | 66 | 1017.8 |
| 20260507194412 | 58 | 0.0 | 0.9 | 0.00 | 0.00 | 0.00 | 65 | 1017.7 | |
| 20260507193512 | 59 | 0.0 | 1.7 | 0.00 | 0.00 | 0.00 | 65 | 1017.6 | |
| 20260507192611 | 59 | 0.0 | 1.7 | 0.00 | 0.00 | 0.00 | 64 | 1017.5 | |
| 20260507191812 | 60 | 0.0 | 1.7 | 0.00 | 0.00 | 0.00 | 63 | 1017.6 | |
| 20260507190810 | 60 | 135 | 0.9 | 4.3 | 0.00 | 0.00 | 0.00 | 62 | 1017.6 |
| 20260507185929 | 61 | 135 | 0.9 | 3.5 | 0.00 | 0.00 | 0.00 | 60 | 1017.7 |
| 20260507184130 | 61 | 135 | 0.9 | 3.5 | 0.00 | 0.00 | 0.00 | 60 | 1017.5 |
| 20260507183207 | 62 | 135 | 1.7 | 4.3 | 0.00 | 0.00 | 0.00 | 58 | 1017.5 |
| 20260507182307 | 62 | 0.0 | 1.7 | 0.00 | 0.00 | 0.00 | 57 | 1017.4 | |
| 20260507181406 | 63 | 0.0 | 2.6 | 0.00 | 0.00 | 0.00 | 56 | 1017.4 | |
| 20260507180505 | 64 | 158 | 0.9 | 1.7 | 0.00 | 0.00 | 0.00 | 55 | 1017.2 |
| 20260507175604 | 64 | 158 | 0.9 | 1.7 | 0.00 | 0.00 | 0.00 | 54 | 1017.1 |
| 20260507174704 | 65 | 135 | 1.7 | 4.3 | 0.00 | 0.00 | 0.00 | 53 | 1017.3 |
| 20260507173803 | 66 | 125 | 0.9 | 4.3 | 0.00 | 0.00 | 0.00 | 51 | 1017.0 |
| 20260507172902 | 67 | 113 | 0.9 | 2.6 | 0.00 | 0.00 | 0.00 | 49 | 1017.0 |
| 20260507171101 | 67 | 158 | 1.7 | 3.5 | 0.00 | 0.00 | 0.00 | 47 | 1017.1 |
| 20260507170201 | 68 | 135 | 0.9 | 1.7 | 0.00 | 0.00 | 0.00 | 46 | 1017.0 |
| 20260507165300 | 69 | 135 | 1.7 | 4.3 | 0.00 | 0.00 | 0.00 | 44 | 1016.9 |
| 20260507164359 | 69 | 158 | 1.7 | 2.6 | 0.00 | 0.00 | 0.00 | 42 | 1017.0 |
| 20260507163459 | 70 | 135 | 1.7 | 3.5 | 0.00 | 0.00 | 0.00 | 40 | 1016.9 |
| 20260507162558 | 70 | 113 | 0.9 | 2.6 | 0.00 | 0.00 | 0.00 | 39 | 1016.9 |
| 20260507161657 | 71 | 113 | 1.7 | 3.5 | 0.00 | 0.00 | 0.00 | 37 | 1016.9 |
| 20260507160756 | 71 | 158 | 1.7 | 3.5 | 0.00 | 0.00 | 0.00 | 35 | 1016.9 |
| 20260507155939 | 72 | 139 | 0.9 | 3.5 | 0.00 | 0.00 | 0.00 | 31 | 1016.7 |
| 20260507154055 | 73 | 158 | 1.7 | 3.5 | 0.00 | 0.00 | 0.00 | 29 | 1016.6 |
| 20260507153154 | 73 | 135 | 0.9 | 2.6 | 0.00 | 0.00 | 0.00 | 28 | 1016.8 |
| 20260507152253 | 74 | 158 | 1.7 | 3.5 | 0.00 | 0.00 | 0.00 | 27 | 1016.6 |
| 20260507151353 | 74 | 113 | 0.9 | 3.5 | 0.00 | 0.00 | 0.00 | 26 | 1016.9 |
| 20260507150534 | 74 | 135 | 0.9 | 1.7 | 0.00 | 0.00 | 0.00 | 26 | 1016.8 |
| 20260507145553 | 75 | 1.7 | 4.3 | 0.00 | 0.00 | 0.00 | 25 | 1016.7 | |
| 20260507144651 | 75 | 1.7 | 4.3 | 0.00 | 0.00 | 0.00 | 24 | 1016.7 | |
| 20260507143751 | 76 | 135 | 0.9 | 2.6 | 0.00 | 0.00 | 0.00 | 24 | 1016.8 |
| 20260507142849 | 77 | 113 | 0.9 | 2.6 | 0.00 | 0.00 | 0.00 | 21 | 1016.6 |
| 20260507141050 | 78 | 1.7 | 5.2 | 0.00 | 0.00 | 0.00 | 17 | 1016.7 | |
| 20260507140149 | 79 | 158 | 1.7 | 3.5 | 0.00 | 0.00 | 0.00 | 15 | 1016.5 |
| 20260507135247 | 79 | 135 | 1.7 | 2.6 | 0.00 | 0.00 | 0.00 | 14 | 1016.5 |
| 20260507134406 | 78 | 158 | 1.7 | 2.6 | 0.00 | 0.00 | 0.00 | 13 | 1016.4 |
| 20260507133506 | 80 | 158 | 0.9 | 3.5 | 0.00 | 0.00 | 0.00 | 11 | 1016.4 |
| 20260507132545 | 81 | 135 | 0.9 | 2.6 | 0.00 | 0.00 | 0.00 | 1016.5 | |
| 20260507131646 | 82 | 158 | 0.9 | 2.6 | 0.00 | 0.00 | 0.00 | 1016.5 | |
| 20260507130744 | 83 | 135 | 1.7 | 2.6 | 0.00 | 0.00 | 0.00 | 1016.4 | |
| 20260507125843 | 83 | 120 | 0.9 | 3.5 | 0.00 | 0.00 | 0.00 | 1016.5 | |
| 20260507124043 | 82 | 135 | 1.7 | 4.3 | 0.00 | 0.00 | 0.00 | 1016.9 | |
| 20260507123141 | 82 | 135 | 1.7 | 3.5 | 0.00 | 0.00 | 0.00 | 1016.8 | |
| 20260507122241 | 81 | 135 | 0.9 | 1.7 | 0.00 | 0.00 | 0.00 | 1017.0 | |
| 20260507121400 | 81 | 135 | 1.7 | 5.2 | 0.00 | 0.00 | 0.00 | 1017.0 | |
| 20260507120540 | 82 | 158 | 0.9 | 1.7 | 0.00 | 0.00 | 0.00 | 1017.2 | |
| 20260507115539 | 82 | 113 | 1.7 | 3.5 | 0.00 | 0.00 | 0.00 | 1017.0 | |
| 20260507114638 | 82 | 158 | 1.7 | 4.3 | 0.00 | 0.00 | 0.00 | 1017.2 | |
| 20260507113757 | 83 | 113 | 1.7 | 4.3 | 0.00 | 0.00 | 0.00 | 1017.1 | |
| 20260507112836 | 83 | 144 | 1.7 | 3.5 | 0.00 | 0.00 | 0.00 | 1017.2 | |
| 20260507111036 | 82 | 135 | 0.9 | 2.6 | 0.00 | 0.00 | 0.00 | 1017.3 | |
| 20260507110135 | 82 | 113 | 0.9 | 1.7 | 0.00 | 0.00 | 0.00 | 1017.3 | |
| 20260507105235 | 83 | 113 | 0.9 | 4.3 | 0.00 | 0.00 | 0.00 | 1017.3 | |
| 20260507104334 | 83 | 135 | 0.9 | 1.7 | 0.00 | 0.00 | 0.00 | 1017.5 | |
| 20260507103433 | 84 | 113 | 3.5 | 7.0 | 0.00 | 0.00 | 0.00 | 1017.5 | |
| 20260507102532 | 83 | 135 | 0.9 | 1.7 | 0.00 | 0.00 | 0.00 | 1017.6 | |
| 20260507101652 | 83 | 135 | 0.9 | 1.7 | 0.00 | 0.00 | 0.00 | 1017.5 | |
| 20260507100731 | 83 | 135 | 1.7 | 4.3 | 0.00 | 0.00 | 0.00 | 1017.6 | |
| 20260507095911 | 83 | 135 | 1.7 | 6.1 | 0.00 | 0.00 | 0.00 | 1017.6 | |
| 20260507094029 | 83 | 135 | 1.7 | 3.5 | 0.00 | 0.00 | 0.00 | 1017.7 | |
| 20260507093129 | 82 | 135 | 1.7 | 3.5 | 0.00 | 0.00 | 0.00 | 1017.8 | |
| 20260507092228 | 82 | 158 | 0.9 | 2.6 | 0.00 | 0.00 | 0.00 | 1017.7 | |
| 20260507091327 | 82 | 135 | 1.7 | 4.3 | 0.00 | 0.00 | 0.00 | 1017.7 | |
| 20260507090427 | 82 | 135 | 1.7 | 2.6 | 0.00 | 0.00 | 0.00 | 1017.7 | |
| 20260507085526 | 82 | 158 | 1.7 | 5.2 | 0.00 | 0.00 | 0.00 | 1017.7 | |
| 20260507084625 | 82 | 113 | 1.7 | 4.3 | 0.00 | 0.00 | 0.00 | 1017.8 | |
| 20260507083726 | 83 | 158 | 1.7 | 4.3 | 0.00 | 0.00 | 0.00 | 1017.7 | |
| 20260507082824 | 82 | 113 | 0.9 | 3.5 | 0.00 | 0.00 | 0.00 | 1017.6 | |
| 20260507081023 | 81 | 135 | 0.9 | 3.5 | 0.00 | 0.00 | 0.00 | 1017.6 | |
| 20260507080122 | 80 | 113 | 1.7 | 3.5 | 0.00 | 0.00 | 0.00 | 1017.6 | |
| 20260507075221 | 80 | 1.7 | 3.5 | 0.00 | 0.00 | 0.00 | 1017.5 | ||
| 20260507074321 | 80 | 113 | 0.9 | 2.6 | 0.00 | 0.00 | 0.00 | 1017.5 | |
| 20260507073420 | 79 | 113 | 1.7 | 4.3 | 0.00 | 0.00 | 0.00 | 1017.7 |